createdAt,value
2022-12-09T00:05:37.992Z,54.92
2022-12-09T00:13:47.397Z,55.47
2022-12-09T00:21:57.350Z,62.58
2022-12-09T00:30:12.107Z,47.13
2022-12-09T00:38:17.995Z,52.13
2022-12-09T00:46:26.592Z,49.15
2022-12-09T00:54:33.914Z,51.13
2022-12-09T01:02:42.781Z,45.08
2022-12-09T01:10:49.611Z,45.17
2022-12-09T01:19:00.908Z,49.80
2022-12-09T01:27:08.236Z,48.03
2022-12-09T01:35:16.807Z,47.55
2022-12-09T01:43:23.249Z,45.42
2022-12-09T01:51:31.674Z,45.08
2022-12-09T01:59:37.941Z,47.88
2022-12-09T02:07:47.092Z,46.90
2022-12-09T02:15:57.996Z,46.60
2022-12-09T02:24:16.457Z,44.63
2022-12-09T02:32:46.953Z,46.40
2022-12-09T02:41:00.169Z,49.95
2022-12-09T02:49:06.742Z,49.50
2022-12-09T02:57:18.632Z,55.70
2022-12-09T03:05:30.436Z,50.45
2022-12-09T03:13:46.983Z,50.50
2022-12-09T03:21:58.073Z,47.95
2022-12-09T03:30:08.831Z,50.05
2022-12-09T03:38:18.915Z,47.90
2022-12-09T03:46:27.534Z,44.42
2022-12-09T03:54:37.988Z,45.03
2022-12-09T04:02:46.613Z,47.38
2022-12-09T04:10:52.720Z,42.58
2022-12-09T04:19:01.104Z,43.30
2022-12-09T04:27:07.009Z,41.22
2022-12-09T04:35:17.298Z,38.92
2022-12-09T04:43:22.671Z,39.63
2022-12-09T04:51:37.517Z,37.72
2022-12-09T04:59:44.774Z,40.35
2022-12-09T05:07:53.360Z,45.83
2022-12-09T05:16:03.198Z,50.10
2022-12-09T05:24:11.915Z,51.08
2022-12-09T05:32:17.608Z,51.53
2022-12-09T05:40:28.125Z,39.15
2022-12-09T05:48:33.735Z,38.75
2022-12-09T05:56:47.701Z,35.20
2022-12-09T06:04:53.798Z,35.92
2022-12-09T06:13:02.551Z,35.95
2022-12-09T06:21:10.013Z,36.45
2022-12-09T06:29:18.540Z,43.72
2022-12-09T06:37:25.316Z,32.22
2022-12-09T06:45:33.306Z,29.50
2022-12-09T06:53:38.717Z,30.70
2022-12-09T07:01:48.697Z,25.10
2022-12-09T07:09:54.852Z,25.45
2022-12-09T07:18:03.516Z,25.90
2022-12-09T07:26:10.155Z,25.20
2022-12-09T07:34:18.776Z,28.95
2022-12-09T07:42:25.213Z,26.02
2022-12-09T07:50:35.732Z,27.77
2022-12-09T07:58:41.826Z,23.52
2022-12-09T08:06:50.087Z,19.20
2022-12-09T08:14:56.035Z,20.83
2022-12-09T08:23:05.780Z,19.55
2022-12-09T08:31:12.634Z,18.38
2022-12-09T08:39:20.899Z,17.17
2022-12-09T08:47:27.805Z,14.85
2022-12-09T08:55:39.462Z,18.85
2022-12-09T09:03:45.170Z,19.73
2022-12-09T09:11:54.203Z,19.45
2022-12-09T09:20:00.155Z,18.27
2022-12-09T09:28:09.459Z,14.55
2022-12-09T09:36:19.478Z,13.48
2022-12-09T09:44:36.115Z,13.27
2022-12-09T09:52:45.377Z,16.02
2022-12-09T10:01:01.073Z,17.05
2022-12-09T10:09:17.916Z,12.65
2022-12-09T10:17:31.280Z,12.70
2022-12-09T10:25:39.197Z,11.15
2022-12-09T10:33:47.964Z,14.20
2022-12-09T10:42:12.294Z,9.32
2022-12-09T10:50:34.353Z,10.30
2022-12-09T10:58:42.130Z,10.40
2022-12-09T11:06:55.632Z,11.75
2022-12-09T11:15:06.070Z,8.90
2022-12-09T11:23:20.641Z,23.00
2022-12-09T11:31:32.612Z,7.80
2022-12-09T11:39:41.546Z,12.88
2022-12-09T11:48:24.174Z,12.25
2022-12-09T11:56:20.382Z,15.05
2022-12-09T12:04:30.320Z,11.63
2022-12-09T12:12:45.601Z,11.98
2022-12-09T12:21:05.409Z,12.27
2022-12-09T12:29:27.888Z,12.93
2022-12-09T12:37:43.091Z,12.40
2022-12-09T12:46:10.129Z,14.52
2022-12-09T12:54:26.786Z,14.20
2022-12-09T13:02:46.578Z,13.93
2022-12-09T13:10:55.409Z,16.38
2022-12-09T13:19:10.419Z,19.25
2022-12-09T13:27:24.018Z,20.55
2022-12-09T13:43:43.444Z,20.20
2022-12-09T13:51:53.944Z,18.83
2022-12-09T14:00:03.307Z,25.65
2022-12-09T14:08:23.371Z,15.85
2022-12-09T14:16:38.663Z,8.68
2022-12-09T14:24:49.948Z,13.65
2022-12-09T14:32:58.940Z,15.35
2022-12-09T14:41:20.475Z,17.95
2022-12-09T14:49:28.047Z,21.85
2022-12-09T14:57:42.629Z,18.27
2022-12-09T15:06:14.928Z,19.35
2022-12-09T15:14:39.194Z,22.15
2022-12-09T15:22:49.599Z,15.43
2022-12-09T15:31:04.467Z,12.33
2022-12-09T15:48:02.387Z,18.25
2022-12-09T15:56:16.303Z,24.92
2022-12-09T16:04:34.319Z,15.18
2022-12-09T16:12:46.872Z,25.77
2022-12-09T16:21:37.134Z,27.43
2022-12-09T16:30:00.034Z,29.05
2022-12-09T16:38:37.475Z,32.88
2022-12-09T16:46:44.258Z,27.30
2022-12-09T16:54:53.657Z,30.38
2022-12-09T17:03:04.259Z,26.05
2022-12-09T17:11:13.408Z,27.75
2022-12-09T17:19:18.949Z,25.15
2022-12-09T17:27:27.929Z,36.33
2022-12-09T17:35:36.375Z,32.05
2022-12-09T17:43:45.508Z,36.53
2022-12-09T17:51:58.769Z,34.80
2022-12-09T18:00:12.191Z,24.90
2022-12-09T18:08:20.493Z,25.47
2022-12-09T18:16:31.514Z,35.75
2022-12-09T18:24:37.711Z,26.75
2022-12-09T18:32:49.119Z,32.85
2022-12-09T18:41:07.615Z,32.70
2022-12-09T18:49:21.892Z,36.22
2022-12-09T18:57:31.190Z,25.63
2022-12-09T19:05:43.962Z,32.47
2022-12-09T19:13:50.809Z,28.70
2022-12-09T19:22:04.446Z,26.10
2022-12-09T19:30:11.395Z,28.38
2022-12-09T19:38:19.560Z,19.25
2022-12-09T19:46:26.863Z,25.38
2022-12-09T19:54:42.626Z,24.70
2022-12-09T20:02:53.756Z,22.27
2022-12-09T20:11:03.688Z,18.42
2022-12-09T20:19:10.713Z,20.10
2022-12-09T20:27:21.428Z,24.33
2022-12-09T20:35:31.042Z,20.60
2022-12-09T20:44:13.808Z,21.42
2022-12-09T20:52:30.657Z,14.98
